Terminal Aerodrome Forecast
Issued by NWS

Home | Current Version | Previous Version | Text Only | Print | Product List | Glossary On
Versions: 1 2 3 4 5 6 7 8 9 10 11 12 13
953
FTUS42 KTBW 252326
TAFLAL
TAF
KLAL 252326Z 2600/2624 10006KT P6SM SCT050 SCT250
     FM260300 VRB03KT P6SM SKC
     FM261500 10005KT P6SM SCT035 SCT250
     FM261900 13006KT P6SM VCTS SCT040CB BKN250=

USA.gov is the U.S. government's official web portal to all federal, state and local government web resources and services.